Time;durP1;ratioP1;P1;durP2;ratioP2;P2;SDS_P1;SDS_P2;PMS_P1;PMS_P2;Temp;Humidity;BMP_temperature;BMP_pressure;BME280_temperature;BME280_humidity;BME280_pressure;Samples;Min_cycle;Max_cycle;Signal;HPM_P1;HPM_P2
2021/06/28 00:02:10;;;;;;;6.50;4.40;;;;;;;22.01;62.55;101117.02;1792578;80;25493;-60
2021/06/28 00:04:37;;;;;;;9.78;4.67;;;;;;;22.02;62.71;101116.83;1780063;78;27475;-60
2021/06/28 00:07:04;;;;;;;9.08;4.47;;;;;;;22.02;62.68;101125.56;1792233;78;25793;-60
2021/06/28 00:09:31;;;;;;;9.28;4.15;;;;;;;22.02;62.88;101123.68;1792527;78;25509;-60
2021/06/28 00:11:58;;;;;;;8.23;4.05;;;;;;;22.02;62.88;101129.16;1792537;80;25556;-60
2021/06/28 00:14:26;;;;;;;11.03;4.58;;;;;;;22.04;62.96;101129.81;1792776;78;26307;-60
2021/06/28 00:16:54;;;;;;;13.88;4.10;;;;;;;22.03;62.78;101129.48;1792670;78;27475;-60
2021/06/28 00:19:21;;;;;;;14.18;4.17;;;;;;;22.00;62.88;101131.25;1792086;80;25798;-60
2021/06/28 00:21:47;;;;;;;9.05;4.25;;;;;;;22.01;63.03;101129.34;1792582;78;25865;-60
2021/06/28 00:24:14;;;;;;;10.00;4.22;;;;;;;21.99;63.17;101129.55;1792861;80;25646;-60
2021/06/28 00:26:41;;;;;;;9.98;4.25;;;;;;;21.98;63.20;101127.86;1792474;78;25798;-60
2021/06/28 00:29:08;;;;;;;9.23;4.58;;;;;;;21.96;63.54;101129.13;1792577;78;27469;-59
2021/06/28 00:31:35;;;;;;;8.00;3.65;;;;;;;21.88;63.46;101132.36;1792394;78;25861;-60
2021/06/28 00:34:02;;;;;;;10.75;3.95;;;;;;;21.81;63.79;101138.83;1792166;78;25674;-60
2021/06/28 00:36:29;;;;;;;6.03;3.60;;;;;;;21.76;63.74;101149.02;1763398;80;25592;-60
2021/06/28 00:38:57;;;;;;;9.73;3.60;;;;;;;21.73;63.98;101146.17;1792656;79;25528;-59
2021/06/28 00:41:24;;;;;;;3.50;3.20;;;;;;;21.68;64.04;101134.98;1792456;78;28178;-60
2021/06/28 00:43:51;;;;;;;11.65;3.87;;;;;;;21.62;63.87;101128.92;1792259;78;25830;-60
2021/06/28 00:46:18;;;;;;;7.20;3.67;;;;;;;21.56;64.11;101131.91;1792800;80;25797;-60
2021/06/28 00:48:45;;;;;;;9.10;4.28;;;;;;;21.54;64.04;101137.27;1792847;80;26719;-59
2021/06/28 00:51:12;;;;;;;12.85;4.35;;;;;;;21.51;64.34;101142.63;1810395;78;25784;-59
2021/06/28 00:53:40;;;;;;;8.68;4.72;;;;;;;21.47;64.51;101138.58;1790412;80;28135;-59
2021/06/28 00:56:10;;;;;;;13.00;4.58;;;;;;;21.42;64.40;101139.72;1822847;78;25459;-60
2021/06/28 00:58:42;;;;;;;7.58;4.70;;;;;;;21.40;64.35;101137.70;1794219;80;25503;-60
2021/06/28 01:01:11;;;;;;;15.85;5.08;;;;;;;21.37;64.33;101141.68;1794263;80;25816;-60
2021/06/28 01:03:39;;;;;;;9.50;4.67;;;;;;;21.33;64.42;101139.54;1794203;80;25730;-60
2021/06/28 01:06:11;;;;;;;15.78;4.95;;;;;;;21.29;64.32;101140.47;1755440;80;27462;-60
2021/06/28 01:08:37;;;;;;;10.93;5.12;;;;;;;21.24;64.37;101141.59;1771227;81;25688;-60
2021/06/28 01:11:04;;;;;;;9.40;4.40;;;;;;;21.16;64.38;101143.94;1784683;80;25832;-60
2021/06/28 01:13:39;;;;;;;7.05;4.50;;;;;;;21.10;64.41;101142.00;1771381;81;25833;-60
2021/06/28 01:16:07;;;;;;;7.78;4.60;;;;;;;21.01;65.54;101141.81;1771293;81;25746;-59
2021/06/28 01:18:35;;;;;;;11.55;4.25;;;;;;;20.83;66.79;101145.86;1771610;81;27393;-60
2021/06/28 01:21:02;;;;;;;7.62;4.03;;;;;;;20.67;66.52;101151.52;1770959;81;25473;-60
2021/06/28 01:23:32;;;;;;;15.85;4.80;;;;;;;20.59;66.14;101148.41;1771465;79;25798;-60
2021/06/28 01:26:07;;;;;;;7.85;3.65;;;;;;;20.55;66.87;101153.42;1771379;81;25790;-60
2021/06/28 01:28:36;;;;;;;8.93;4.37;;;;;;;20.54;66.59;101155.82;1770580;80;25800;-59
2021/06/28 01:31:07;;;;;;;9.80;4.28;;;;;;;20.53;66.49;101160.95;1771299;81;27451;-59
2021/06/28 01:33:35;;;;;;;10.43;4.10;;;;;;;20.53;66.49;101159.59;1771304;81;25769;-59
2021/06/28 01:36:03;;;;;;;7.45;4.95;;;;;;;20.53;66.57;101156.02;1771301;81;25738;-60
2021/06/28 01:38:32;;;;;;;6.40;4.50;;;;;;;20.51;66.92;101164.92;1771576;79;25714;-59
2021/06/28 01:41:00;;;;;;;8.80;4.92;;;;;;;20.45;66.69;101165.17;1771400;81;25460;-59
2021/06/28 01:43:27;;;;;;;10.60;4.83;;;;;;;20.42;66.59;101167.77;1771249;81;27532;-60
2021/06/28 01:45:55;;;;;;;9.28;4.50;;;;;;;20.39;66.77;101162.68;1767917;80;25774;-60
2021/06/28 01:48:23;;;;;;;7.78;4.22;;;;;;;20.34;66.77;101171.98;1786862;80;25706;-59
2021/06/28 01:50:52;;;;;;;8.10;4.72;;;;;;;20.34;66.81;101170.62;1746737;80;26273;-60
2021/06/28 01:53:19;;;;;;;11.18;4.20;;;;;;;20.38;66.98;101166.45;1755167;80;25755;-60
2021/06/28 01:55:46;;;;;;;8.00;4.78;;;;;;;20.41;66.85;101167.95;1728684;81;27435;-60
2021/06/28 01:58:16;;;;;;;9.45;5.08;;;;;;;20.44;66.98;101167.04;1755089;80;26174;-60
2021/06/28 02:00:53;;;;;;;7.60;4.78;;;;;;;20.36;66.78;101174.52;1728338;83;25525;-60
2021/06/28 02:03:23;;;;;;;13.32;4.65;;;;;;;20.30;66.73;101175.63;1755081;80;25689;-60
2021/06/28 02:05:55;;;;;;;10.65;4.67;;;;;;;20.28;66.98;101176.33;1746084;81;25990;-60
2021/06/28 02:08:26;;;;;;;10.32;4.97;;;;;;;20.24;66.89;101184.56;1775834;80;28364;-60
2021/06/28 02:11:00;;;;;;;8.58;5.00;;;;;;;20.21;66.60;101189.06;1775900;80;25707;-60
2021/06/28 02:13:32;;;;;;;12.33;5.30;;;;;;;20.17;66.51;101179.53;1776026;80;25651;-59
2021/06/28 02:16:00;;;;;;;15.50;6.00;;;;;;;20.18;66.45;101192.99;1775917;80;27537;-59
2021/06/28 02:18:28;;;;;;;12.37;5.45;;;;;;;20.21;66.37;101187.69;1775671;80;25675;-60
2021/06/28 02:20:57;;;;;;;11.55;5.37;;;;;;;20.22;66.17;101177.59;1775738;80;26880;-60
2021/06/28 02:23:34;;;;;;;15.15;5.15;;;;;;;20.22;65.99;101181.16;1775783;80;25703;-59
2021/06/28 02:26:09;;;;;;;9.33;6.08;;;;;;;20.21;66.19;101192.29;1776013;79;25616;-60
2021/06/28 02:28:40;;;;;;;10.63;4.65;;;;;;;20.19;66.10;101185.66;1776013;80;25701;-59
2021/06/28 02:31:11;;;;;;;11.05;5.53;;;;;;;20.10;66.20;101186.27;1776101;80;25675;-59
2021/06/28 02:33:41;;;;;;;8.15;5.12;;;;;;;20.10;66.43;101180.80;1776146;80;27077;-60
2021/06/28 02:36:09;;;;;;;12.47;4.40;;;;;;;20.11;66.65;101181.13;1775924;80;25824;-59
2021/06/28 02:38:39;;;;;;;15.48;4.78;;;;;;;20.10;66.17;101178.61;1776203;80;25751;-60
2021/06/28 02:41:07;;;;;;;11.38;5.37;;;;;;;20.07;66.52;101178.97;1776076;80;25724;-59
2021/06/28 02:43:36;;;;;;;12.40;4.95;;;;;;;20.08;66.60;101186.13;1776004;80;25620;-60
2021/06/28 02:46:04;;;;;;;11.68;4.58;;;;;;;20.09;66.44;101185.10;1775921;80;27359;-60
2021/06/28 02:48:31;;;;;;;7.70;4.85;;;;;;;20.07;66.49;101188.53;1775553;79;25792;-60
2021/06/28 02:50:58;;;;;;;10.43;4.30;;;;;;;20.06;66.35;101188.20;1798672;78;25779;-59
2021/06/28 02:53:25;;;;;;;11.35;4.05;;;;;;;20.05;66.63;101190.59;1790294;80;25640;-60
2021/06/28 02:55:52;;;;;;;9.65;5.05;;;;;;;20.04;66.55;101190.30;1822784;78;25729;-60
2021/06/28 02:58:21;;;;;;;9.33;4.65;;;;;;;20.08;66.29;101189.70;1766926;80;27865;-60
2021/06/28 03:00:49;;;;;;;13.22;4.53;;;;;;;20.10;66.17;101197.72;1793902;80;25721;-60
2021/06/28 03:03:16;;;;;;;9.48;4.47;;;;;;;20.08;66.04;101196.52;1793902;80;25688;-60
2021/06/28 03:05:43;;;;;;;12.40;4.47;;;;;;;20.00;66.07;101196.13;1776081;80;25652;-60
2021/06/28 03:08:10;;;;;;;10.85;4.12;;;;;;;19.97;66.30;101191.03;1772369;80;25742;-60
2021/06/28 03:10:38;;;;;;;8.88;4.50;;;;;;;20.01;66.28;101198.32;1772421;80;27475;-60
2021/06/28 03:13:07;;;;;;;13.68;4.78;;;;;;;20.01;66.21;101199.19;1772356;80;25807;-60
2021/06/28 03:15:35;;;;;;;10.15;4.83;;;;;;;20.05;66.16;101201.52;1772441;80;25774;-60
2021/06/28 03:18:02;;;;;;;16.20;4.58;;;;;;;20.08;66.06;101198.42;1772384;80;25762;-60
2021/06/28 03:20:29;;;;;;;14.83;4.80;;;;;;;20.12;66.00;101203.85;1772440;80;25811;-60
2021/06/28 03:22:56;;;;;;;11.38;5.05;;;;;;;20.20;65.94;101201.02;1772202;80;27492;-60
2021/06/28 03:25:24;;;;;;;10.45;4.85;;;;;;;20.26;65.82;101194.78;1772357;80;25886;-59
2021/06/28 03:27:53;;;;;;;10.13;4.97;;;;;;;20.25;65.61;101190.89;1772350;80;25646;-60
2021/06/28 03:30:20;;;;;;;12.55;5.05;;;;;;;20.24;65.57;101192.75;1775067;80;26155;-60
2021/06/28 03:32:49;;;;;;;11.93;5.17;;;;;;;20.24;65.48;101199.58;1775836;80;25731;-60
2021/06/28 03:35:18;;;;;;;14.07;5.62;;;;;;;20.26;65.35;101200.78;1775535;80;28148;-62
2021/06/28 03:37:52;;;;;;;14.23;5.35;;;;;;;20.25;65.37;101199.92;1743894;80;25760;-62
2021/06/28 03:40:23;;;;;;;11.60;5.03;;;;;;;20.23;65.43;101197.88;1775743;80;25742;-62
2021/06/28 03:42:52;;;;;;;10.05;5.20;;;;;;;20.25;65.56;101200.45;1749283;80;26911;-62
2021/06/28 03:45:23;;;;;;;16.95;4.22;;;;;;;20.21;65.62;101201.34;1775707;80;26328;-62
2021/06/28 03:47:54;;;;;;;14.38;4.92;;;;;;;20.22;65.99;101205.75;1777738;80;27544;-61
2021/06/28 03:50:24;;;;;;;10.93;5.20;;;;;;;20.17;65.74;101196.76;1774809;80;25862;-62
2021/06/28 03:52:51;;;;;;;8.78;4.28;;;;;;;20.03;65.74;101173.58;1778813;80;25698;-61
2021/06/28 03:55:26;;;;;;;12.43;4.78;;;;;;;20.15;65.69;101200.22;1778196;80;25790;-61
2021/06/28 03:58:11;;;;;;;11.65;4.42;;;;;;;20.10;65.70;101195.83;1778487;80;25439;-63
2021/06/28 04:00:41;;;;;;;15.78;4.33;;;;;;;20.08;65.70;101197.89;1778596;80;27638;-62
2021/06/28 04:03:16;;;;;;;10.85;5.00;;;;;;;20.11;65.78;101195.33;1776737;80;25880;-60
2021/06/28 04:05:43;;;;;;;9.75;5.12;;;;;;;20.18;65.82;101200.35;1768385;80;25859;-60
2021/06/28 04:08:10;;;;;;;9.18;5.20;;;;;;;20.24;65.81;101195.48;1766188;80;27498;-60
2021/06/28 04:10:37;;;;;;;10.10;4.67;;;;;;;20.29;65.59;101190.81;1766271;81;25718;-60
2021/06/28 04:13:04;;;;;;;12.40;4.83;;;;;;;20.33;65.62;101192.14;1766442;81;27462;-60
2021/06/28 04:15:31;;;;;;;18.40;4.37;;;;;;;20.41;65.63;101194.77;1766108;81;25723;-60
2021/06/28 04:17:59;;;;;;;11.88;5.10;;;;;;;20.53;65.43;101196.48;1766402;81;25794;-61
2021/06/28 04:20:27;;;;;;;14.55;5.72;;;;;;;20.56;64.93;101193.37;1766528;81;26388;-59
2021/06/28 04:22:54;;;;;;;11.48;5.55;;;;;;;20.61;64.73;101195.53;1766215;81;25712;-59
2021/06/28 04:25:23;;;;;;;10.48;5.30;;;;;;;20.68;64.59;101199.69;1766210;81;27528;-59
2021/06/28 04:27:50;;;;;;;17.48;7.10;;;;;;;20.72;64.25;101203.20;1766193;81;25818;-58
2021/06/28 04:30:19;;;;;;;11.25;5.33;;;;;;;20.77;64.25;101210.36;1766507;81;25659;-58
2021/06/28 04:32:47;;;;;;;9.78;5.50;;;;;;;20.79;63.90;101203.32;1766320;81;26069;-58
2021/06/28 04:35:20;;;;;;;13.75;5.35;;;;;;;20.79;63.76;101208.79;1766210;81;25710;-59
2021/06/28 04:37:48;;;;;;;9.38;5.25;;;;;;;20.75;63.84;101206.97;1766195;80;27497;-59
2021/06/28 04:40:22;;;;;;;14.03;5.33;;;;;;;20.68;64.27;101203.78;1766209;81;43886;-59
2021/06/28 04:42:50;;;;;;;9.08;4.70;;;;;;;20.60;64.56;101209.70;1766097;81;25484;-58
2021/06/28 04:45:19;;;;;;;17.42;5.30;;;;;;;20.55;64.51;101214.05;1766255;81;26177;-60
2021/06/28 04:47:47;;;;;;;12.80;5.12;;;;;;;20.53;64.52;101212.87;1765940;80;25769;-59
2021/06/28 04:50:17;;;;;;;21.87;4.87;;;;;;;20.52;64.61;101213.08;1767657;80;27466;-59
2021/06/28 04:52:44;;;;;;;8.75;5.08;;;;;;;20.53;64.74;101216.15;1775663;80;25693;-58
2021/06/28 04:55:14;;;;;;;11.73;5.45;;;;;;;20.53;64.82;101212.05;1775982;80;25729;-59
2021/06/28 04:57:44;;;;;;;8.30;5.37;;;;;;;20.57;64.68;101215.57;1775698;80;25807;-59
2021/06/28 05:00:19;;;;;;;11.10;5.28;;;;;;;20.62;64.53;101218.56;1776018;80;25893;-59
2021/06/28 05:02:46;;;;;;;9.70;5.33;;;;;;;20.64;64.55;101212.39;1776176;80;29012;-59
2021/06/28 05:05:14;;;;;;;12.13;5.37;;;;;;;20.70;64.29;101212.65;1767393;80;25704;-59
2021/06/28 05:07:43;;;;;;;14.25;6.45;;;;;;;20.74;64.06;101209.91;1762216;81;25733;-60
2021/06/28 05:10:13;;;;;;;8.80;5.75;;;;;;;20.77;63.98;101218.56;1761957;81;26208;-61
2021/06/28 05:12:41;;;;;;;20.02;6.20;;;;;;;20.80;64.07;101215.42;1762202;81;26436;-63
2021/06/28 05:15:11;;;;;;;11.97;5.30;;;;;;;20.87;64.04;101219.60;1762281;81;28364;-59
2021/06/28 05:17:39;;;;;;;12.07;5.45;;;;;;;20.92;63.41;101219.02;1762201;81;25771;-59
2021/06/28 05:20:09;;;;;;;20.82;5.90;;;;;;;20.91;63.18;101219.56;1762256;80;25748;-59
2021/06/28 05:22:37;;;;;;;12.33;5.92;;;;;;;20.93;63.29;101221.55;1761960;80;26143;-59
2021/06/28 05:25:07;;;;;;;11.33;5.45;;;;;;;21.03;63.46;101228.59;1762211;81;25723;-59
2021/06/28 05:27:34;;;;;;;11.45;5.97;;;;;;;21.10;63.60;101230.91;1762134;81;27469;-59
2021/06/28 05:30:06;;;;;;;10.70;5.20;;;;;;;21.20;63.45;101234.13;1762091;81;25778;-60
2021/06/28 05:32:35;;;;;;;8.47;5.47;;;;;;;21.30;63.36;101230.22;1762469;81;25739;-59
2021/06/28 05:35:03;;;;;;;15.75;5.42;;;;;;;21.42;63.23;101224.55;1762090;80;25700;-59
2021/06/28 05:37:30;;;;;;;18.75;4.65;;;;;;;21.50;62.88;101230.42;1762020;81;25746;-59
2021/06/28 05:39:57;;;;;;;11.12;4.70;;;;;;;21.61;63.74;101231.80;1762100;81;27489;-60
2021/06/28 05:42:24;;;;;;;14.30;4.30;;;;;;;21.67;63.24;101240.58;1762278;81;25515;-59
2021/06/28 05:44:51;;;;;;;16.00;5.00;;;;;;;21.74;62.80;101238.73;1762169;81;25822;-60
2021/06/28 05:47:22;;;;;;;10.68;4.30;;;;;;;21.82;62.96;101239.11;1762165;80;25588;-60
2021/06/28 05:49:48;;;;;;;20.02;5.83;;;;;;;21.89;62.74;101236.76;1762327;79;25813;-60
2021/06/28 05:52:19;;;;;;;16.87;4.40;;;;;;;21.98;62.40;101237.43;1762665;81;28148;-60
2021/06/28 05:54:43;;;;;;;10.80;5.42;;;;;;;22.08;61.87;101235.72;1762229;81;25628;-60
2021/06/28 05:57:10;;;;;;;6.35;4.10;;;;;;;22.13;61.60;101237.31;1762633;81;25689;-59
2021/06/28 05:59:38;;;;;;;10.70;4.03;;;;;;;22.19;61.26;101236.50;1762509;81;26702;-60
2021/06/28 06:02:11;;;;;;;9.80;3.98;;;;;;;22.26;60.41;101245.30;1762465;81;25731;-61
2021/06/28 06:04:47;;;;;;;9.48;3.87;;;;;;;22.29;60.47;101243.50;1763584;81;27960;-60
2021/06/28 06:07:16;;;;;;;6.60;4.20;;;;;;;22.34;60.09;101241.85;1764789;80;25686;-61
2021/06/28 06:09:45;;;;;;;15.05;5.33;;;;;;;22.38;59.97;101249.14;1765525;81;25715;-60
2021/06/28 06:12:14;;;;;;;12.95;4.70;;;;;;;22.43;60.22;101242.58;1765638;80;26772;-61
2021/06/28 06:14:41;;;;;;;10.35;4.53;;;;;;;22.50;60.08;101246.72;1765560;81;25809;-61
2021/06/28 06:17:09;;;;;;;9.60;3.98;;;;;;;22.54;59.51;101255.38;1765707;81;27501;-61
2021/06/28 06:19:37;;;;;;;8.93;4.25;;;;;;;22.55;57.80;101257.08;1765358;81;25789;-61
2021/06/28 06:22:04;;;;;;;13.20;4.17;;;;;;;22.53;55.65;101259.17;1765422;81;25767;-61
2021/06/28 06:24:31;;;;;;;19.90;4.28;;;;;;;22.55;55.20;101256.54;1765602;79;27629;-60
2021/06/28 06:26:58;;;;;;;10.30;3.83;;;;;;;22.61;56.25;101260.36;1765553;81;25462;-61
2021/06/28 06:29:26;;;;;;;6.35;3.60;;;;;;;22.66;56.98;101261.45;1765357;81;27479;-61
2021/06/28 06:31:53;;;;;;;10.13;4.05;;;;;;;22.73;56.87;101261.98;1765396;81;25801;-61
2021/06/28 06:34:22;;;;;;;16.75;3.40;;;;;;;22.80;55.98;101268.34;1765211;81;25843;-61
2021/06/28 06:36:49;;;;;;;6.97;3.87;;;;;;;22.87;56.13;101260.14;1765493;80;25747;-60
2021/06/28 06:39:17;;;;;;;7.67;3.98;;;;;;;22.91;56.31;101265.52;1765593;81;25708;-61
2021/06/28 06:41:44;;;;;;;9.35;4.33;;;;;;;22.92;54.74;101265.84;1765753;81;28209;-61
2021/06/28 06:44:11;;;;;;;11.18;3.77;;;;;;;22.97;55.42;101264.17;1765776;79;25773;-61
2021/06/28 06:46:39;;;;;;;9.95;3.67;;;;;;;23.04;55.33;101268.85;1765416;79;25675;-61
2021/06/28 06:49:06;;;;;;;5.20;3.25;;;;;;;23.07;55.21;101264.30;1763242;80;25743;-60
2021/06/28 06:51:34;;;;;;;10.58;4.80;;;;;;;23.13;54.60;101257.46;1763875;79;25886;-59
2021/06/28 06:54:01;;;;;;;6.42;4.10;;;;;;;23.17;53.60;101259.80;1755157;81;27468;-58
2021/06/28 06:56:28;;;;;;;10.88;3.90;;;;;;;23.19;53.87;101265.94;1755167;81;25800;-58
2021/06/28 06:58:55;;;;;;;9.23;3.37;;;;;;;23.20;52.24;101263.52;1754974;81;25681;-58
2021/06/28 07:01:23;;;;;;;10.63;4.80;;;;;;;23.22;52.46;101264.16;1727400;81;25929;-58
2021/06/28 07:03:50;;;;;;;9.00;3.92;;;;;;;23.34;53.22;101268.50;1754944;81;25620;-59
2021/06/28 07:06:17;;;;;;;13.28;4.53;;;;;;;23.47;54.22;101256.68;1753333;81;27495;-59
2021/06/28 07:08:44;;;;;;;21.25;12.35;;;;;;;23.59;54.57;101264.62;1753380;81;25802;-58
2021/06/28 07:11:11;;;;;;;9.58;4.55;;;;;;;23.71;54.86;101261.53;1753371;81;25712;-58
2021/06/28 07:13:49;;;;;;;7.47;4.30;;;;;;;23.80;54.06;101257.23;1764464;80;26268;-59
2021/06/28 07:16:13;;;;;;;7.80;4.25;;;;;;;23.90;53.57;101253.49;1783635;80;25909;-61
2021/06/28 07:18:40;;;;;;;11.10;4.17;;;;;;;23.99;53.45;101256.36;1776149;80;27470;-60
2021/06/28 07:21:07;;;;;;;12.23;4.03;;;;;;;24.11;53.52;101259.84;1775853;80;25862;-61
2021/06/28 07:23:33;;;;;;;7.45;3.62;;;;;;;24.18;52.84;101260.15;1775793;80;25818;-61
2021/06/28 07:26:00;;;;;;;15.70;4.25;;;;;;;24.27;52.70;101260.74;1775945;80;25708;-61
2021/06/28 07:28:33;;;;;;;6.22;4.22;;;;;;;24.38;52.57;101256.50;1776131;80;25774;-59
2021/06/28 07:30:57;;;;;;;7.97;3.77;;;;;;;24.43;51.96;101255.31;1774578;80;27496;-59
2021/06/28 07:33:27;;;;;;;11.97;4.10;;;;;;;24.43;49.76;101267.69;1775637;80;26433;-60
2021/06/28 07:35:55;;;;;;;6.12;3.92;;;;;;;24.40;50.41;101259.03;1775427;80;25699;-60
2021/06/28 07:38:23;;;;;;;5.08;3.95;;;;;;;24.47;50.83;101261.22;1775860;80;25631;-58
2021/06/28 07:40:50;;;;;;;10.45;3.60;;;;;;;24.59;51.46;101254.50;1775865;80;25655;-59
2021/06/28 07:43:18;;;;;;;5.80;3.47;;;;;;;24.65;51.45;101253.11;1775943;80;28677;-58
2021/06/28 07:45:47;;;;;;;11.25;4.67;;;;;;;24.77;52.18;101260.71;1776126;80;25694;-59
2021/06/28 07:48:16;;;;;;;7.70;3.30;;;;;;;24.83;51.90;101259.28;1792812;79;25718;-58
2021/06/28 07:50:44;;;;;;;6.47;3.52;;;;;;;24.91;51.03;101254.06;1765751;80;25780;-61
2021/06/28 07:53:11;;;;;;;16.82;4.58;;;;;;;24.99;51.58;101257.09;1779379;79;25976;-61
2021/06/28 07:55:39;;;;;;;7.47;4.12;;;;;;;25.06;51.05;101256.52;1780740;79;28658;-61
2021/06/28 07:58:07;;;;;;;5.90;3.52;;;;;;;25.13;50.52;101260.06;1786780;78;25892;-58
2021/06/28 08:00:34;;;;;;;10.95;3.30;;;;;;;25.16;49.45;101258.27;1791295;79;25713;-58
2021/06/28 08:03:04;;;;;;;7.37;3.95;;;;;;;25.18;49.96;101260.78;1793291;79;25763;-58
2021/06/28 08:05:31;;;;;;;9.65;3.05;;;;;;;25.23;50.20;101246.34;1791594;78;25675;-58
2021/06/28 08:07:59;;;;;;;9.40;3.33;;;;;;;25.30;48.49;101256.77;1791301;78;27541;-59
2021/06/28 08:10:26;;;;;;;8.38;2.80;;;;;;;25.30;46.06;101254.88;1795073;78;25770;-58
2021/06/28 08:12:53;;;;;;;4.10;2.92;;;;;;;25.27;45.60;101257.24;1795684;78;25736;-61
2021/06/28 08:15:21;;;;;;;8.48;3.08;;;;;;;25.22;45.44;101257.91;1795591;79;25746;-61
2021/06/28 08:17:50;;;;;;;7.95;3.30;;;;;;;25.29;46.85;101255.95;1795655;79;25940;-58
2021/06/28 08:20:20;;;;;;;12.73;2.77;;;;;;;25.30;46.28;101251.27;1782094;78;28144;-57
2021/06/28 08:22:49;;;;;;;5.90;3.00;;;;;;;25.39;46.54;101259.59;1790220;80;25773;-59
2021/06/28 08:25:16;;;;;;;6.05;2.70;;;;;;;25.41;45.49;101262.16;1790427;80;25885;-58
2021/06/28 08:27:44;;;;;;;9.28;3.20;;;;;;;25.40;44.32;101268.72;1790051;78;26140;-58
2021/06/28 08:30:13;;;;;;;3.98;2.92;;;;;;;25.48;45.30;101267.07;1790807;79;25746;-58
2021/06/28 08:32:41;;;;;;;5.33;3.10;;;;;;;25.59;44.61;101275.13;1788528;80;27525;-59
2021/06/28 08:35:09;;;;;;;2.83;2.50;;;;;;;25.62;44.08;101274.14;1793600;79;25706;-59
2021/06/28 08:37:37;;;;;;;7.22;3.77;;;;;;;25.63;43.86;101268.12;1802229;78;25797;-59
2021/06/28 08:40:07;;;;;;;6.45;2.40;;;;;;;25.69;43.03;101277.37;1790370;80;26097;-58
2021/06/28 08:42:34;;;;;;;8.13;3.00;;;;;;;25.77;43.37;101265.55;1791615;79;25750;-58
2021/06/28 08:45:02;;;;;;;5.92;3.00;;;;;;;25.97;44.12;101265.89;1790929;79;28146;-59
2021/06/28 08:47:29;;;;;;;8.08;2.98;;;;;;;26.13;45.05;101272.77;1790845;79;25781;-59
2021/06/28 08:49:57;;;;;;;3.90;2.25;;;;;;;26.34;43.43;101270.09;1785602;78;25770;-59
2021/06/28 08:52:25;;;;;;;3.65;2.50;;;;;;;26.55;41.78;101270.69;1785949;78;26176;-59
2021/06/28 08:54:53;;;;;;;15.18;3.02;;;;;;;26.69;42.69;101268.08;1786178;79;25782;-59
2021/06/28 08:57:20;;;;;;;8.35;2.60;;;;;;;26.81;41.40;101269.55;1786681;79;27445;-59
2021/06/28 08:59:48;;;;;;;6.35;2.27;;;;;;;27.03;41.92;101271.77;1786450;78;25702;-59
2021/06/28 09:02:15;;;;;;;6.95;2.50;;;;;;;27.27;40.90;101275.46;1786642;80;25703;-59
2021/06/28 09:05:02;;;;;;;6.00;2.77;;;;;;;27.49;40.47;101274.40;1785796;80;25757;-59
2021/06/28 09:07:29;;;;;;;5.15;2.70;;;;;;;27.65;40.60;101277.02;1784087;80;25769;-59
2021/06/28 09:09:56;;;;;;;9.73;2.40;;;;;;;27.83;39.16;101268.87;1784925;80;28171;-59
2021/06/28 09:12:24;;;;;;;7.85;3.12;;;;;;;27.95;39.24;101270.55;1784482;80;25816;-59
2021/06/28 09:14:58;;;;;;;6.40;2.80;;;;;;;27.91;40.24;101269.34;1784123;80;25759;-59
2021/06/28 09:17:40;;;;;;;11.15;2.67;;;;;;;28.00;40.76;101267.06;1784895;80;25721;-59
2021/06/28 09:20:18;;;;;;;9.40;2.70;;;;;;;28.22;39.87;101264.55;1784963;80;25726;-59
2021/06/28 09:22:47;;;;;;;4.17;2.60;;;;;;;28.41;39.38;101265.22;1785172;80;28163;-59
2021/06/28 09:25:38;;;;;;;5.25;2.47;;;;;;;28.58;38.19;101262.55;1784799;80;25831;-60
2021/06/28 09:28:06;;;;;;;12.63;5.62;;;;;;;28.78;37.48;101268.20;1772887;79;25741;-59
2021/06/28 09:30:49;;;;;;;11.88;4.25;;;;;;;28.95;38.02;101258.57;1796198;79;26088;-59
2021/06/28 09:33:07;;;;;;;6.45;3.10;;;;;;;29.26;38.34;101259.14;1791988;79;25701;-60
2021/06/28 09:35:40;;;;;;;3.60;2.90;;;;;;;29.58;35.27;101246.67;1790501;79;27976;-60
2021/06/28 09:38:14;;;;;;;7.37;2.65;;;;;;;29.73;35.42;101247.44;1786662;79;25796;-60
2021/06/28 09:40:41;;;;;;;4.70;2.30;;;;;;;29.98;34.97;101249.27;1783356;80;25671;-60
2021/06/28 09:43:27;;;;;;;6.50;2.40;;;;;;;30.13;34.32;101239.47;1786864;80;26486;-60
2021/06/28 09:45:55;;;;;;;5.03;3.00;;;;;;;30.36;33.67;101248.62;1786762;79;25758;-60
2021/06/28 09:48:29;;;;;;;7.05;2.00;;;;;;;30.55;33.57;101249.19;1786663;80;28315;-60
2021/06/28 09:51:21;;;;;;;8.15;2.25;;;;;;;30.70;33.24;101242.98;1785833;80;26466;-60
2021/06/28 09:54:07;;;;;;;4.78;2.40;;;;;;;31.00;32.87;101241.61;1785113;80;25744;-60
2021/06/28 09:56:48;;;;;;;5.20;2.60;;;;;;;31.26;32.90;101241.34;1785173;80;26204;-59
2021/06/28 09:59:37;;;;;;;4.17;2.55;;;;;;;31.43;33.22;101243.14;1784976;78;25739;-58
2021/06/28 10:02:25;;;;;;;5.65;2.70;;;;;;;31.59;32.65;101242.72;1738769;82;27393;-59
2021/06/28 10:04:58;;;;;;;2.92;2.60;;;;;;;31.87;32.45;101243.50;1752936;81;26107;-60
2021/06/28 10:07:32;;;;;;;8.15;2.45;;;;;;;32.05;30.63;101241.63;1769895;80;25412;-60
2021/06/28 10:10:13;;;;;;;11.78;2.72;;;;;;;31.88;31.42;101235.41;1763422;80;25781;-60
2021/06/28 10:12:44;;;;;;;12.20;2.67;;;;;;;31.98;31.58;101231.30;1738922;82;25792;-60
2021/06/28 10:15:16;;;;;;;4.05;2.17;;;;;;;32.14;31.84;101226.66;1738868;82;27585;-60
2021/06/28 10:17:46;;;;;;;7.08;1.95;;;;;;;32.37;30.58;101229.59;1742314;80;25950;-60
2021/06/28 10:20:17;;;;;;;5.55;2.37;;;;;;;32.63;30.14;101225.48;1741958;80;25751;-61
2021/06/28 10:22:47;;;;;;;19.90;4.42;;;;;;;32.88;30.20;101228.92;1739691;82;26345;-60
2021/06/28 10:25:18;;;;;;;6.35;2.62;;;;;;;33.09;31.60;101222.81;1742065;81;26652;-60
2021/06/28 10:27:46;;;;;;;4.03;2.20;;;;;;;33.46;29.52;101221.45;1739129;82;27594;-60
2021/06/28 10:30:18;;;;;;;16.42;2.90;;;;;;;33.75;28.56;101219.47;1741686;80;25729;-60
2021/06/28 10:32:49;;;;;;;9.13;2.67;;;;;;;33.89;28.09;101216.95;1739188;82;25654;-61
2021/06/28 10:35:24;;;;;;;5.40;2.25;;;;;;;34.13;27.09;101218.52;1740725;80;25704;-61
2021/06/28 10:37:53;;;;;;;16.95;2.80;;;;;;;34.38;28.43;101211.18;1739008;82;25708;-61
2021/06/28 10:40:23;;;;;;;5.75;2.37;;;;;;;35.16;28.04;101217.13;1739207;82;27095;-59
2021/06/28 10:42:57;;;;;;;8.00;2.35;;;;;;;35.83;25.75;101213.16;1739162;82;25787;-59
2021/06/28 10:45:43;;;;;;;5.58;2.25;;;;;;;36.16;24.88;101212.52;1739102;81;25505;-59
2021/06/28 10:48:17;;;;;;;5.37;2.05;;;;;;;36.05;24.90;101213.23;1739617;81;26784;-60
2021/06/28 10:51:06;;;;;;;4.08;2.22;;;;;;;36.06;26.01;101209.30;1775306;80;25760;-61
2021/06/28 10:53:39;;;;;;;8.15;2.37;;;;;;;35.83;25.82;101210.36;1781119;80;27444;-61
2021/06/28 10:56:26;;;;;;;4.45;2.10;;;;;;;35.98;25.73;101203.78;1755401;80;25854;-60
2021/06/28 10:59:05;;;;;;;5.22;1.82;;;;;;;36.26;24.96;101208.20;1719365;82;25824;-60
2021/06/28 11:01:44;;;;;;;6.67;2.00;;;;;;;36.55;23.82;101207.28;1744873;82;25859;-62
2021/06/28 11:04:34;;;;;;;4.35;2.10;;;;;;;36.93;24.94;101205.90;1750567;80;25800;-60
2021/06/28 11:07:13;;;;;;;6.33;2.52;;;;;;;37.52;23.63;101194.24;1767396;80;27493;-60
2021/06/28 11:09:48;;;;;;;5.42;2.20;;;;;;;38.13;23.81;101186.33;1775904;80;25718;-62
2021/06/28 11:12:32;;;;;;;4.17;1.92;;;;;;;38.60;22.48;101191.17;1770759;79;25798;-60
2021/06/28 11:15:25;;;;;;;3.50;2.10;;;;;;;38.89;21.67;101190.55;1744676;82;26071;-60
2021/06/28 11:17:55;;;;;;;5.62;2.30;;;;;;;38.95;22.29;101192.07;1744841;82;25656;-60
2021/06/28 11:20:33;;;;;;;7.72;1.90;;;;;;;38.82;21.92;101194.61;1747542;80;27488;-59
2021/06/28 11:23:09;;;;;;;8.30;1.62;;;;;;;39.06;21.15;101185.61;1745031;82;25949;-60
2021/06/28 11:25:56;;;;;;;4.83;1.82;;;;;;;39.42;22.01;101191.16;1744709;82;25748;-59
2021/06/28 11:28:36;;;;;;;2.55;1.72;;;;;;;39.46;20.71;101184.31;1744939;82;25815;-60
2021/06/28 11:31:13;;;;;;;11.45;2.25;;;;;;;39.18;20.89;101177.42;1744697;82;26237;-62
2021/06/28 11:33:50;;;;;;;6.10;1.70;;;;;;;39.08;21.64;101179.09;1744834;82;28348;-60
2021/06/28 11:36:31;;;;;;;6.22;1.72;;;;;;;39.55;21.83;101185.74;1743898;81;25750;-60